createdAt,value
2022-08-22T00:01:07.852Z,87.00
2022-08-22T00:02:45.978Z,81.50
2022-08-22T00:03:12.111Z,86.00
2022-08-22T00:04:20.840Z,87.00
2022-08-22T00:07:36.784Z,87.00
2022-08-22T00:10:47.851Z,87.20
2022-08-22T00:14:23.855Z,87.30
2022-08-22T00:18:00.849Z,87.40
2022-08-22T00:21:18.877Z,87.50
2022-08-22T00:24:42.931Z,87.40
2022-08-22T00:28:01.868Z,87.50
2022-08-22T00:31:27.798Z,87.50
2022-08-22T00:34:47.816Z,87.60
2022-08-22T00:37:54.880Z,87.80
2022-08-22T00:41:02.808Z,88.00
2022-08-22T00:44:41.833Z,88.20
2022-08-22T00:47:45.827Z,88.40
2022-08-22T00:51:08.877Z,88.30
2022-08-22T00:54:29.822Z,88.50
2022-08-22T00:57:51.866Z,88.70
2022-08-22T01:01:04.872Z,88.70
2022-08-22T01:04:41.835Z,88.90
2022-08-22T01:07:51.843Z,89.10
2022-08-22T01:11:31.903Z,89.10
2022-08-22T01:14:41.913Z,89.20
2022-08-22T01:18:09.844Z,89.20
2022-08-22T01:21:37.821Z,89.30
2022-08-22T01:25:26.026Z,89.30
2022-08-22T01:28:46.837Z,89.30
2022-08-22T01:32:14.847Z,89.30
2022-08-22T01:35:27.832Z,89.20
2022-08-22T01:38:38.941Z,89.20
2022-08-22T01:42:06.835Z,89.30
2022-08-22T01:45:19.871Z,89.40
2022-08-22T01:48:44.845Z,89.30
2022-08-22T01:52:14.912Z,89.40
2022-08-22T01:55:25.999Z,89.40
2022-08-22T01:58:40.869Z,89.40
2022-08-22T02:02:09.844Z,89.50
2022-08-22T02:05:19.886Z,89.60
2022-08-22T02:08:46.913Z,89.60
2022-08-22T02:11:57.927Z,89.70
2022-08-22T02:15:04.959Z,89.70
2022-08-22T02:18:17.873Z,89.70
2022-08-22T02:22:01.847Z,89.70
2022-08-22T02:25:33.900Z,89.80
2022-08-22T02:29:14.874Z,89.70
2022-08-22T02:32:40.864Z,89.80
2022-08-22T02:35:47.963Z,89.70
2022-08-22T02:39:20.882Z,89.80
2022-08-22T02:42:40.026Z,89.90
2022-08-22T02:45:54.060Z,89.90
2022-08-22T02:49:27.400Z,89.90
2022-08-22T02:52:38.937Z,90.00
2022-08-22T02:56:01.888Z,90.00
2022-08-22T02:59:11.947Z,90.00
2022-08-22T03:02:38.905Z,90.00
2022-08-22T03:05:56.859Z,90.00
2022-08-22T03:09:19.107Z,90.10
2022-08-22T03:13:01.909Z,90.20
2022-08-22T03:16:07.903Z,90.30
2022-08-22T03:19:14.956Z,90.30
2022-08-22T03:22:51.907Z,90.30
2022-08-22T03:26:24.930Z,90.30
2022-08-22T03:29:40.076Z,90.30
2022-08-22T03:33:12.903Z,90.20
2022-08-22T03:36:19.919Z,90.30
2022-08-22T03:39:32.973Z,90.30
2022-08-22T03:42:58.976Z,90.40
2022-08-22T03:46:22.060Z,90.40
2022-08-22T03:49:59.995Z,90.40
2022-08-22T03:53:30.958Z,90.50
2022-08-22T03:57:00.452Z,90.40
2022-08-22T04:00:17.992Z,90.40
2022-08-22T04:03:38.141Z,90.40
2022-08-22T04:07:05.421Z,90.40
2022-08-22T04:10:36.057Z,90.40
2022-08-22T04:14:05.179Z,90.40
2022-08-22T04:17:20.154Z,90.40
2022-08-22T04:20:44.011Z,90.40
2022-08-22T04:23:56.934Z,90.40
2022-08-22T04:27:43.947Z,90.40
2022-08-22T04:30:53.016Z,90.40
2022-08-22T04:34:03.047Z,90.40
2022-08-22T04:37:19.011Z,90.30
2022-08-22T04:40:41.963Z,90.30
2022-08-22T04:44:07.102Z,90.20
2022-08-22T04:47:26.059Z,90.20
2022-08-22T04:50:43.960Z,90.10
2022-08-22T04:54:07.022Z,90.10
2022-08-22T04:57:27.968Z,90.00
2022-08-22T05:00:30.033Z,90.00
2022-08-22T05:03:36.009Z,89.90
2022-08-22T05:06:41.086Z,89.90
2022-08-22T05:09:45.976Z,89.90
2022-08-22T05:12:58.129Z,89.80
2022-08-22T05:16:06.024Z,89.80
2022-08-22T05:19:15.700Z,89.70
2022-08-22T05:22:18.002Z,89.70
2022-08-22T05:25:26.052Z,89.80
2022-08-22T05:28:53.223Z,89.90
2022-08-22T05:32:17.061Z,89.90
2022-08-22T05:35:21.034Z,89.80
2022-08-22T05:38:27.090Z,89.70
2022-08-22T05:41:35.012Z,89.60
2022-08-22T05:44:40.030Z,89.60
2022-08-22T05:47:52.109Z,89.60
2022-08-22T05:50:58.049Z,89.60
2022-08-22T05:54:03.996Z,89.60
2022-08-22T05:57:18.056Z,89.60
2022-08-22T06:00:23.015Z,89.50
2022-08-22T06:03:41.048Z,89.60
2022-08-22T06:06:45.046Z,89.60
2022-08-22T06:09:51.088Z,89.50
2022-08-22T06:13:18.159Z,89.50
2022-08-22T06:16:38.056Z,89.50
2022-08-22T06:19:39.192Z,89.50
2022-08-22T06:22:50.029Z,89.40
2022-08-22T06:25:55.023Z,89.40
2022-08-22T06:29:00.066Z,89.30
2022-08-22T06:32:02.075Z,89.30
2022-08-22T06:35:06.138Z,89.30
2022-08-22T06:38:12.117Z,89.40
2022-08-22T06:41:17.079Z,89.50
2022-08-22T06:44:20.068Z,89.50
2022-08-22T06:47:39.104Z,89.10
2022-08-22T06:50:49.069Z,88.50
2022-08-22T06:54:00.197Z,88.00
2022-08-22T06:57:05.061Z,87.60
2022-08-22T07:00:08.027Z,87.50
2022-08-22T07:03:32.169Z,87.40
2022-08-22T07:06:44.130Z,87.30
2022-08-22T07:09:50.139Z,87.30
2022-08-22T07:12:52.217Z,87.40
2022-08-22T07:15:56.389Z,87.30
2022-08-22T07:19:03.142Z,87.20
2022-08-22T07:22:04.072Z,87.20
2022-08-22T07:25:10.106Z,86.60
2022-08-22T07:28:51.423Z,86.30
2022-08-22T07:32:02.088Z,85.80
2022-08-22T07:35:24.263Z,85.30
2022-08-22T07:38:36.109Z,84.50
2022-08-22T07:41:57.148Z,83.80
2022-08-22T07:45:16.287Z,82.60
2022-08-22T07:48:28.091Z,81.10
2022-08-22T07:51:32.093Z,79.90
2022-08-22T07:54:50.085Z,79.90
2022-08-22T07:57:57.175Z,80.10
2022-08-22T08:01:02.157Z,80.20
2022-08-22T08:04:14.076Z,79.60
2022-08-22T08:07:19.073Z,79.50
2022-08-22T08:10:25.172Z,79.60
2022-08-22T08:13:32.088Z,78.50
2022-08-22T08:16:38.126Z,77.90
2022-08-22T08:19:40.133Z,77.80
2022-08-22T08:22:44.154Z,77.90
2022-08-22T08:26:02.109Z,77.90
2022-08-22T08:29:04.117Z,77.70
2022-08-22T08:32:05.251Z,78.00
2022-08-22T08:35:07.319Z,77.60
2022-08-22T08:38:26.221Z,76.20
2022-08-22T08:41:30.135Z,74.70
2022-08-22T08:44:34.169Z,74.40
2022-08-22T08:47:45.136Z,74.00
2022-08-22T08:51:16.214Z,73.20
2022-08-22T08:54:43.215Z,72.30
2022-08-22T08:58:23.172Z,72.20
2022-08-22T09:01:53.127Z,71.00
2022-08-22T09:05:32.184Z,69.70
2022-08-22T09:09:04.139Z,69.20
2022-08-22T09:12:52.254Z,68.70
2022-08-22T09:16:08.187Z,68.20
2022-08-22T09:19:20.363Z,68.70
2022-08-22T09:22:57.179Z,68.00
2022-08-22T09:26:42.216Z,67.00
2022-08-22T09:29:55.392Z,67.80
2022-08-22T09:33:28.250Z,67.70
2022-08-22T09:36:38.157Z,66.20
2022-08-22T09:39:50.395Z,65.70
2022-08-22T09:43:01.297Z,64.80
2022-08-22T09:46:46.306Z,62.80
2022-08-22T09:50:11.737Z,62.40
2022-08-22T09:53:44.731Z,61.20
2022-08-22T09:57:16.525Z,60.80
2022-08-22T10:00:42.273Z,61.20
2022-08-22T10:04:27.165Z,60.20
2022-08-22T10:07:45.200Z,58.50
2022-08-22T10:10:55.201Z,57.70
2022-08-22T10:14:10.190Z,56.70
2022-08-22T10:17:25.239Z,56.20
2022-08-22T10:20:39.409Z,55.40
2022-08-22T10:24:03.195Z,54.10
2022-08-22T10:27:16.202Z,53.80
2022-08-22T10:30:25.247Z,53.80
2022-08-22T10:33:38.256Z,54.10
2022-08-22T10:37:05.188Z,54.10
2022-08-22T10:40:13.362Z,53.50
2022-08-22T10:43:28.612Z,53.50
2022-08-22T10:46:37.214Z,53.70
2022-08-22T10:49:51.232Z,53.70
2022-08-22T10:53:29.410Z,54.00
2022-08-22T10:56:41.229Z,54.30
2022-08-22T11:00:05.273Z,54.20
2022-08-22T11:03:41.232Z,54.00
2022-08-22T11:07:11.236Z,54.20
2022-08-22T11:10:29.290Z,54.70
2022-08-22T11:14:01.299Z,53.70
2022-08-22T11:17:27.587Z,53.10
2022-08-22T11:21:01.235Z,52.40
2022-08-22T11:24:55.666Z,52.20
2022-08-22T11:28:12.383Z,51.50
2022-08-22T11:31:51.362Z,51.90
2022-08-22T11:35:20.326Z,51.60
2022-08-22T11:38:37.252Z,51.00
2022-08-22T11:41:53.266Z,51.10
2022-08-22T11:45:05.382Z,50.90
2022-08-22T11:48:21.333Z,50.40
2022-08-22T11:51:43.322Z,50.00
2022-08-22T11:54:51.751Z,50.40
2022-08-22T11:58:20.902Z,50.80
2022-08-22T12:01:34.438Z,51.00
2022-08-22T12:05:26.323Z,51.20
2022-08-22T12:08:42.268Z,52.10
2022-08-22T12:11:57.968Z,52.40
2022-08-22T12:15:54.751Z,53.00
2022-08-22T12:19:17.545Z,52.80
2022-08-22T12:22:53.414Z,52.90
2022-08-22T12:26:03.406Z,53.60
2022-08-22T12:29:45.184Z,54.10
2022-08-22T12:33:21.939Z,54.60
2022-08-22T12:36:47.385Z,54.60
2022-08-22T12:39:54.331Z,55.20
2022-08-22T12:43:49.601Z,55.10
2022-08-22T12:47:22.352Z,55.90
2022-08-22T12:50:38.337Z,57.40
2022-08-22T12:54:18.354Z,59.10
2022-08-22T12:57:31.283Z,60.40
2022-08-22T13:00:35.574Z,61.10
2022-08-22T13:03:47.333Z,62.00
2022-08-22T13:06:51.337Z,62.50
2022-08-22T13:10:03.138Z,62.30
2022-08-22T13:13:12.043Z,61.80
2022-08-22T13:16:26.322Z,62.20
2022-08-22T13:19:32.413Z,62.50
2022-08-22T13:22:40.392Z,64.30
2022-08-22T13:26:07.557Z,66.00
2022-08-22T13:29:26.159Z,67.60
2022-08-22T13:32:37.312Z,68.60
2022-08-22T13:36:00.543Z,69.30
2022-08-22T13:39:14.449Z,69.60
2022-08-22T13:42:20.250Z,70.80
2022-08-22T13:45:37.357Z,72.00
2022-08-22T13:48:42.393Z,73.00
2022-08-22T13:52:03.320Z,73.90
2022-08-22T13:55:12.568Z,74.80
2022-08-22T13:58:13.444Z,75.40
2022-08-22T14:01:37.481Z,76.40
2022-08-22T14:04:50.338Z,77.20
2022-08-22T14:08:20.462Z,78.50
2022-08-22T14:11:31.425Z,78.90
2022-08-22T14:14:47.393Z,78.80
2022-08-22T14:17:56.417Z,78.90
2022-08-22T14:21:00.413Z,78.60
2022-08-22T14:24:06.344Z,78.70
2022-08-22T14:27:20.461Z,78.40
2022-08-22T14:30:29.427Z,77.90
2022-08-22T14:33:40.007Z,77.50
2022-08-22T14:37:21.410Z,77.20
2022-08-22T14:40:30.372Z,76.80
2022-08-22T14:43:51.398Z,76.70
2022-08-22T14:47:04.166Z,76.50
2022-08-22T14:50:18.602Z,76.30
2022-08-22T14:53:25.555Z,76.00
2022-08-22T14:56:37.594Z,75.90
2022-08-22T15:00:01.379Z,76.10
2022-08-22T15:03:02.386Z,76.20
2022-08-22T15:06:14.398Z,76.30
2022-08-22T15:09:20.728Z,76.60
2022-08-22T15:12:45.571Z,77.10
2022-08-22T15:16:03.533Z,77.80
2022-08-22T15:19:06.825Z,78.20
2022-08-22T15:22:27.591Z,78.60
2022-08-22T15:25:40.858Z,79.00
2022-08-22T15:28:52.782Z,79.00
2022-08-22T15:31:54.469Z,79.10
2022-08-22T15:34:57.467Z,78.90
2022-08-22T15:38:16.173Z,78.90
2022-08-22T15:41:37.037Z,78.90
2022-08-22T15:44:44.472Z,78.80
2022-08-22T15:47:54.502Z,78.90
2022-08-22T15:51:20.471Z,78.90
2022-08-22T15:54:29.433Z,79.00
2022-08-22T15:57:39.607Z,79.20
2022-08-22T16:00:58.596Z,79.30
2022-08-22T16:04:19.454Z,79.50
2022-08-22T16:07:56.560Z,79.60
2022-08-22T16:11:07.209Z,79.50
2022-08-22T16:14:56.457Z,79.20
2022-08-22T16:17:59.455Z,79.10
2022-08-22T16:21:06.525Z,79.10
2022-08-22T16:24:07.528Z,79.20
2022-08-22T16:27:08.465Z,79.50
2022-08-22T16:30:21.493Z,79.80
2022-08-22T16:33:23.668Z,80.10
2022-08-22T16:36:49.627Z,80.30
2022-08-22T16:40:04.608Z,80.30
2022-08-22T16:43:30.485Z,80.40
2022-08-22T16:46:43.532Z,80.90
2022-08-22T16:49:47.688Z,81.10
2022-08-22T16:52:53.461Z,81.30
2022-08-22T16:56:02.619Z,81.50
2022-08-22T16:59:23.555Z,81.80
2022-08-22T17:02:32.504Z,82.30
2022-08-22T17:05:49.460Z,82.60
2022-08-22T17:09:19.556Z,82.90
2022-08-22T17:12:29.548Z,83.30
2022-08-22T17:16:02.568Z,83.60
2022-08-22T17:19:24.465Z,83.80
2022-08-22T17:22:43.533Z,84.20
2022-08-22T17:26:14.473Z,84.60
2022-08-22T17:29:32.496Z,85.00
2022-08-22T17:33:04.583Z,85.30
2022-08-22T17:36:26.254Z,85.60
2022-08-22T17:39:54.404Z,85.70
2022-08-22T17:43:16.484Z,86.00
2022-08-22T17:46:23.508Z,86.20
2022-08-22T17:49:37.562Z,86.30
2022-08-22T17:52:56.539Z,86.40
2022-08-22T17:56:28.566Z,86.60
2022-08-22T17:59:29.574Z,86.70
2022-08-22T18:02:40.673Z,86.70
2022-08-22T18:06:05.577Z,86.80
2022-08-22T18:09:18.741Z,86.90
2022-08-22T18:12:34.421Z,87.20
2022-08-22T18:16:00.615Z,87.30
2022-08-22T18:19:23.497Z,87.40
2022-08-22T18:22:46.671Z,87.50
2022-08-22T18:25:59.593Z,87.60
2022-08-22T18:29:24.608Z,87.70
2022-08-22T18:32:41.912Z,87.80
2022-08-22T18:35:58.592Z,87.90
2022-08-22T18:39:29.048Z,88.00
2022-08-22T18:42:52.586Z,88.20
2022-08-22T18:46:03.934Z,88.40
2022-08-22T18:49:15.441Z,88.50
2022-08-22T18:52:20.631Z,88.80
2022-08-22T18:55:44.580Z,89.00
2022-08-22T18:59:05.795Z,89.20
2022-08-22T19:02:20.625Z,89.40
2022-08-22T19:05:24.631Z,89.50
2022-08-22T19:08:46.871Z,89.80
2022-08-22T19:12:14.571Z,89.80
2022-08-22T19:15:32.555Z,90.00
2022-08-22T19:18:29.588Z,90.20
2022-08-22T19:21:57.740Z,90.20
2022-08-22T19:25:27.919Z,90.30
2022-08-22T19:28:28.619Z,90.40
2022-08-22T19:32:05.950Z,90.40
2022-08-22T19:35:33.577Z,90.60
2022-08-22T19:39:04.652Z,90.60
2022-08-22T19:42:10.622Z,90.60
2022-08-22T19:45:35.637Z,90.60
2022-08-22T19:48:44.644Z,90.70
2022-08-22T19:51:45.644Z,90.70
2022-08-22T19:54:53.652Z,90.70
2022-08-22T19:58:17.657Z,90.80
2022-08-22T20:01:54.595Z,90.90
2022-08-22T20:05:25.659Z,91.00
2022-08-22T20:08:59.566Z,91.00
2022-08-22T20:12:29.750Z,91.10
2022-08-22T20:15:34.597Z,91.10
2022-08-22T20:19:08.488Z,91.10
2022-08-22T20:22:13.642Z,91.10
2022-08-22T20:25:44.287Z,91.10
2022-08-22T20:29:01.582Z,91.10
2022-08-22T20:32:04.600Z,91.20
2022-08-22T20:35:11.615Z,91.20
2022-08-22T20:38:21.776Z,91.20
2022-08-22T20:41:35.836Z,91.30
2022-08-22T20:44:47.619Z,91.40
2022-08-22T20:47:58.673Z,91.40
2022-08-22T20:50:59.696Z,91.40
2022-08-22T20:54:10.616Z,91.40
2022-08-22T20:57:31.791Z,91.50
2022-08-22T21:00:36.689Z,91.50
2022-08-22T21:03:58.658Z,91.60
2022-08-22T21:06:59.636Z,91.60
2022-08-22T21:10:31.649Z,91.60
2022-08-22T21:13:47.627Z,91.60
2022-08-22T21:16:48.646Z,91.60
2022-08-22T21:19:49.689Z,91.70
2022-08-22T21:22:50.756Z,91.70
2022-08-22T21:26:04.661Z,91.70
2022-08-22T21:29:23.695Z,91.80
2022-08-22T21:32:27.653Z,91.80
2022-08-22T21:35:45.731Z,91.80
2022-08-22T21:38:46.806Z,91.80
2022-08-22T21:41:56.658Z,91.80
2022-08-22T21:45:12.701Z,91.90
2022-08-22T21:48:07.710Z,91.90
2022-08-22T21:51:08.698Z,91.90
2022-08-22T21:54:34.664Z,91.90
2022-08-22T21:57:47.644Z,91.90
2022-08-22T22:00:52.677Z,91.90
2022-08-22T22:03:53.731Z,92.00
2022-08-22T22:06:54.719Z,92.00
2022-08-22T22:09:55.664Z,92.00
2022-08-22T22:12:59.662Z,92.10
2022-08-22T22:16:03.752Z,92.10
2022-08-22T22:19:04.689Z,92.10
2022-08-22T22:22:07.743Z,92.20
2022-08-22T22:25:39.597Z,92.20
2022-08-22T22:28:33.673Z,92.30
2022-08-22T22:31:34.768Z,92.40
2022-08-22T22:34:35.753Z,92.50
2022-08-22T22:37:36.797Z,92.60
2022-08-22T22:40:42.865Z,92.60
2022-08-22T22:43:43.766Z,92.70
2022-08-22T22:46:44.811Z,92.70
2022-08-22T22:49:46.753Z,92.70
2022-08-22T22:52:48.745Z,92.70
2022-08-22T22:56:00.535Z,92.80
2022-08-22T22:59:14.654Z,92.90
2022-08-22T23:02:22.699Z,92.90
2022-08-22T23:05:24.705Z,92.90
2022-08-22T23:08:25.802Z,93.00
2022-08-22T23:11:31.853Z,93.00
2022-08-22T23:14:32.706Z,93.00
2022-08-22T23:17:33.713Z,93.10
2022-08-22T23:20:34.753Z,93.00
2022-08-22T23:23:35.781Z,93.00
2022-08-22T23:26:36.782Z,93.00
2022-08-22T23:29:38.932Z,93.00
2022-08-22T23:32:39.772Z,93.00
2022-08-22T23:35:40.806Z,93.10
2022-08-22T23:38:41.736Z,93.20
2022-08-22T23:41:42.723Z,93.30
2022-08-22T23:44:46.719Z,93.30
2022-08-22T23:47:47.786Z,93.30
2022-08-22T23:50:48.723Z,93.20
2022-08-22T23:53:50.922Z,93.30
2022-08-22T23:57:01.731Z,93.30
